Gypsum, Kansas
Current Conditions -  °F | °C
As of 2:53 AM on Friday 19 Dec 2014 (Local Time) from KSLN Reporting Station
Haze Haze  
Wind Chill: 25°   Ceiling: 500
Heat Index: 30°   Visibility: 4mi
Dew Point: 27°   Wind: 5mph
Humidity: 88%   Direction: 160°SSE
Pressure: 30.25"   Gusts: NA
Location:  38.71°N, 97.43°W
Report Text: KSLN 190853Z AUTO 16004KT 4SM BR BKN005 OVC010 M01/M03 A3025 RMK AO2 CIG 005V009 SLP256 T10111028 55005
Loading
Personal Weather Stations






























Interactive Weather Map New forecast layout! Learn more

10-Day Weather Forecast

Advertisements
Track Severe Weather on mobile